Time;durP1;ratioP1;P1;durP2;ratioP2;P2;SDS_P1;SDS_P2;PMS_P1;PMS_P2;Temp;Humidity;BMP_temperature;BMP_pressure;BME280_temperature;BME280_humidity;BME280_pressure;Samples;Min_cycle;Max_cycle;Signal;HPM_P1;HPM_P2
2024/01/09 00:01:53;;;;;;;8.93;6.63;;;-3.40;70.00;;;;;;968857;144;27270;-87
2024/01/09 00:04:19;;;;;;;8.87;5.57;;;-3.40;70.10;;;;;;971342;144;27557;-87
2024/01/09 00:06:46;;;;;;;10.83;6.60;;;-3.40;70.20;;;;;;930730;150;27368;-84
2024/01/09 00:09:13;;;;;;;8.17;5.60;;;-3.40;70.20;;;;;;932261;151;27388;-88
2024/01/09 00:11:39;;;;;;;7.90;5.87;;;-3.40;70.20;;;;;;947604;148;27345;-88
2024/01/09 00:14:06;;;;;;;12.03;6.87;;;-3.40;70.30;;;;;;930313;149;27329;-87
2024/01/09 00:16:32;;;;;;;7.93;5.83;;;-3.40;70.30;;;;;;933222;149;27339;-84
2024/01/09 00:18:59;;;;;;;8.57;6.10;;;-3.40;70.30;;;;;;968597;143;27407;-87
2024/01/09 00:21:26;;;;;;;9.27;6.60;;;-3.40;70.30;;;;;;973552;143;27252;-87
2024/01/09 00:23:52;;;;;;;7.87;6.37;;;-3.40;70.30;;;;;;969469;143;27274;-87
2024/01/09 00:26:19;;;;;;;8.53;6.03;;;-3.40;70.30;;;;;;970441;143;27331;-85
2024/01/09 00:28:46;;;;;;;8.63;6.23;;;-3.40;70.40;;;;;;967628;143;27336;-89
2024/01/09 00:31:12;;;;;;;9.87;6.03;;;-3.40;71.30;;;;;;972504;144;27300;-83
2024/01/09 00:33:39;;;;;;;7.63;5.97;;;-3.40;70.40;;;;;;970107;143;27231;-83
2024/01/09 00:36:05;;;;;;;9.97;6.50;;;-3.40;70.40;;;;;;970848;143;27378;-83
2024/01/09 00:38:32;;;;;;;7.73;5.73;;;-3.40;70.50;;;;;;970446;143;27246;-85
2024/01/09 00:40:58;;;;;;;9.40;5.80;;;-3.40;70.50;;;;;;973071;143;27334;-83
2024/01/09 00:43:25;;;;;;;8.80;6.33;;;-3.40;70.50;;;;;;971568;143;27247;-83
2024/01/09 00:45:52;;;;;;;9.00;6.03;;;-3.40;70.50;;;;;;971190;143;28130;-83
2024/01/09 00:48:18;;;;;;;7.63;6.00;;;-3.40;70.60;;;;;;970732;143;27329;-86
2024/01/09 00:50:45;;;;;;;9.23;6.60;;;-3.40;70.60;;;;;;929340;149;27354;-87
2024/01/09 00:53:11;;;;;;;8.00;5.57;;;-3.40;70.50;;;;;;970963;143;27224;-86
2024/01/09 00:55:38;;;;;;;7.87;5.30;;;-3.40;70.50;;;;;;968159;143;27310;-87
2024/01/09 00:58:04;;;;;;;7.43;5.67;;;-3.40;70.60;;;;;;968992;143;27274;-86
2024/01/09 01:00:31;;;;;;;8.90;5.67;;;-3.40;70.60;;;;;;969637;143;27813;-83
2024/01/09 01:02:58;;;;;;;7.60;5.53;;;-3.40;70.60;;;;;;969922;143;28497;-88
2024/01/09 01:05:24;;;;;;;7.00;5.77;;;-3.40;70.60;;;;;;966917;143;27287;-87
2024/01/09 01:07:51;;;;;;;8.47;6.63;;;-3.40;70.60;;;;;;969501;143;27317;-86
2024/01/09 01:10:17;;;;;;;7.73;5.63;;;-3.40;70.60;;;;;;932889;149;27359;-83
2024/01/09 01:12:44;;;;;;;10.50;6.27;;;-3.40;70.70;;;;;;929874;151;27456;-87
2024/01/09 01:15:11;;;;;;;8.37;5.90;;;-3.40;70.70;;;;;;930484;150;27302;-88
2024/01/09 01:17:37;;;;;;;7.50;6.47;;;-3.40;70.70;;;;;;972565;144;27325;-88
2024/01/09 01:20:04;;;;;;;6.83;5.43;;;-3.40;70.80;;;;;;972202;144;27336;-86
2024/01/09 01:22:30;;;;;;;7.53;5.40;;;-3.40;70.70;;;;;;973507;144;27727;-87
2024/01/09 01:24:57;;;;;;;7.27;5.57;;;-3.40;70.80;;;;;;972380;144;27298;-87
2024/01/09 01:27:23;;;;;;;9.23;6.03;;;-3.40;70.70;;;;;;970743;144;27283;-87
2024/01/09 01:29:50;;;;;;;8.20;6.40;;;-3.40;70.70;;;;;;972215;144;27259;-87
2024/01/09 01:32:17;;;;;;;7.70;5.50;;;-3.40;70.80;;;;;;970133;144;27387;-88
2024/01/09 01:34:43;;;;;;;8.23;5.97;;;-3.40;70.80;;;;;;972831;144;27321;-88
2024/01/09 01:37:10;;;;;;;7.10;5.37;;;-3.40;70.80;;;;;;973845;144;27239;-86
2024/01/09 01:39:37;;;;;;;8.77;5.73;;;-3.40;70.80;;;;;;973488;144;27363;-87
2024/01/09 01:42:03;;;;;;;8.63;5.97;;;-3.40;70.80;;;;;;973035;144;27387;-85
2024/01/09 01:44:30;;;;;;;8.33;6.07;;;-3.40;70.80;;;;;;972210;144;27314;-88
2024/01/09 01:46:56;;;;;;;7.83;6.00;;;-3.40;70.80;;;;;;975767;144;27236;-87
2024/01/09 01:49:23;;;;;;;10.20;6.70;;;-3.40;70.80;;;;;;972560;144;27276;-87
2024/01/09 01:51:49;;;;;;;10.63;6.50;;;-3.40;70.80;;;;;;973394;144;27274;-85
2024/01/09 01:54:16;;;;;;;6.93;5.63;;;-3.40;70.80;;;;;;973586;144;27334;-86
2024/01/09 01:56:43;;;;;;;7.77;5.77;;;-3.40;70.80;;;;;;972012;144;28404;-88
2024/01/09 01:59:09;;;;;;;6.53;5.77;;;-3.50;70.70;;;;;;969878;144;27317;-88
2024/01/09 02:01:36;;;;;;;7.47;5.90;;;-3.40;70.80;;;;;;970499;144;27340;-86
2024/01/09 02:04:03;;;;;;;6.83;5.57;;;-3.50;70.90;;;;;;971860;144;27422;-83
2024/01/09 02:06:29;;;;;;;7.83;6.00;;;-3.50;70.80;;;;;;937710;149;27473;-87
2024/01/09 02:08:55;;;;;;;7.57;5.73;;;-3.50;70.80;;;;;;973602;144;27315;-86
2024/01/09 02:11:22;;;;;;;8.30;5.77;;;-3.50;70.90;;;;;;974187;144;27267;-87
2024/01/09 02:13:49;;;;;;;6.50;5.47;;;-3.60;70.80;;;;;;972581;144;27399;-85
2024/01/09 02:16:15;;;;;;;9.23;5.70;;;-3.60;70.80;;;;;;971861;144;27418;-88
2024/01/09 02:18:42;;;;;;;7.17;5.80;;;-3.60;70.80;;;;;;971828;144;27260;-87
2024/01/09 02:21:08;;;;;;;6.30;4.93;;;-3.60;70.90;;;;;;975710;144;27306;-85
2024/01/09 02:23:35;;;;;;;6.53;5.37;;;-3.60;70.90;;;;;;972996;144;27267;-87
2024/01/09 02:26:02;;;;;;;8.23;6.80;;;-3.60;71.00;;;;;;975111;144;27341;-87
2024/01/09 02:28:28;;;;;;;9.27;5.90;;;-3.60;71.00;;;;;;975444;144;28365;-86
2024/01/09 02:30:55;;;;;;;9.30;6.50;;;-3.60;71.00;;;;;;972590;144;27301;-86
2024/01/09 02:33:21;;;;;;;10.27;6.40;;;-3.60;71.00;;;;;;974156;144;27834;-86
2024/01/09 02:35:48;;;;;;;7.80;6.27;;;-3.60;71.00;;;;;;971489;144;27259;-85
2024/01/09 02:38:15;;;;;;;6.80;5.20;;;-3.60;71.00;;;;;;970741;144;27778;-86
2024/01/09 02:40:41;;;;;;;7.63;6.07;;;-3.60;71.00;;;;;;974603;144;27741;-88
2024/01/09 02:43:08;;;;;;;7.73;5.77;;;-3.60;71.10;;;;;;972410;144;27325;-85
2024/01/09 02:45:34;;;;;;;10.97;6.50;;;-3.60;71.10;;;;;;936346;151;27343;-85
2024/01/09 02:48:01;;;;;;;7.03;5.33;;;-3.60;71.10;;;;;;934734;151;27345;-89
2024/01/09 02:50:27;;;;;;;7.43;6.50;;;-3.70;71.00;;;;;;948151;149;27296;-87
2024/01/09 02:52:54;;;;;;;9.20;6.43;;;-3.70;71.10;;;;;;946201;149;27305;-86
2024/01/09 02:55:21;;;;;;;10.00;6.40;;;-3.70;71.00;;;;;;972155;142;27349;-86
2024/01/09 02:57:47;;;;;;;9.17;6.47;;;-3.70;71.50;;;;;;973313;144;27318;-84
2024/01/09 03:00:14;;;;;;;8.80;6.23;;;-3.70;71.10;;;;;;972974;144;27418;-87
2024/01/09 03:02:40;;;;;;;12.53;6.90;;;-3.70;71.10;;;;;;973884;144;27232;-87
2024/01/09 03:05:07;;;;;;;7.93;6.00;;;-3.70;71.10;;;;;;972456;144;27283;-86
2024/01/09 03:07:34;;;;;;;8.97;5.90;;;-3.70;71.20;;;;;;972621;144;27374;-84
2024/01/09 03:10:00;;;;;;;8.10;5.90;;;-3.80;71.10;;;;;;974231;144;27440;-87
2024/01/09 03:12:27;;;;;;;9.27;6.67;;;-3.80;71.20;;;;;;973267;143;27291;-87
2024/01/09 03:14:53;;;;;;;7.20;5.33;;;-3.80;71.20;;;;;;971896;144;27252;-87
2024/01/09 03:17:20;;;;;;;10.03;6.63;;;-3.80;71.30;;;;;;971738;144;27335;-87
2024/01/09 03:19:47;;;;;;;7.63;6.20;;;-3.80;71.30;;;;;;975231;144;27304;-85
2024/01/09 03:22:13;;;;;;;9.10;6.73;;;-3.80;71.30;;;;;;972911;144;28208;-88
2024/01/09 03:24:40;;;;;;;9.50;6.63;;;-3.80;71.30;;;;;;973463;144;27271;-88
2024/01/09 03:27:06;;;;;;;8.83;6.57;;;-3.80;71.30;;;;;;937684;151;27307;-87
2024/01/09 03:29:33;;;;;;;8.10;5.77;;;-3.80;71.30;;;;;;970859;144;27283;-85
2024/01/09 03:31:59;;;;;;;10.87;6.93;;;-3.80;71.30;;;;;;971587;144;27419;-86
2024/01/09 03:34:26;;;;;;;8.40;5.83;;;-3.80;71.40;;;;;;974308;144;27281;-88
2024/01/09 03:36:53;;;;;;;7.27;5.57;;;-3.80;71.40;;;;;;971478;144;27266;-86
2024/01/09 03:39:19;;;;;;;9.03;6.50;;;-3.80;71.30;;;;;;976109;144;27367;-85
2024/01/09 03:41:46;;;;;;;8.57;6.07;;;-3.80;71.40;;;;;;971588;144;27390;-86
2024/01/09 03:44:12;;;;;;;8.80;6.20;;;-3.80;71.40;;;;;;974057;144;27314;-87
2024/01/09 03:46:39;;;;;;;9.00;6.73;;;-3.80;71.40;;;;;;979342;142;27458;-87
2024/01/09 03:49:06;;;;;;;9.93;6.70;;;-3.80;71.40;;;;;;990877;142;27254;-86
2024/01/09 03:51:32;;;;;;;8.90;6.43;;;-3.90;71.40;;;;;;975448;142;27344;-87
2024/01/09 03:53:59;;;;;;;9.93;5.97;;;-3.90;71.40;;;;;;968393;144;27215;-87
2024/01/09 03:56:25;;;;;;;8.57;5.97;;;-3.90;71.40;;;;;;970623;144;27364;-85
2024/01/09 03:58:52;;;;;;;10.20;6.27;;;-3.90;71.40;;;;;;975266;144;27266;-86
2024/01/09 04:01:19;;;;;;;8.10;6.33;;;-3.90;71.40;;;;;;976729;144;27403;-88
2024/01/09 04:03:45;;;;;;;9.13;6.57;;;-3.90;71.60;;;;;;970837;144;27242;-85
2024/01/09 04:06:12;;;;;;;9.43;6.23;;;-3.90;71.40;;;;;;973916;144;27269;-84
2024/01/09 04:08:38;;;;;;;8.70;5.77;;;-3.90;71.40;;;;;;970669;144;27387;-83
2024/01/09 04:11:05;;;;;;;8.93;6.93;;;-3.90;71.50;;;;;;971545;144;27338;-86
2024/01/09 04:13:31;;;;;;;7.67;5.63;;;-3.90;71.40;;;;;;972728;144;27391;-84
2024/01/09 04:15:58;;;;;;;8.77;6.47;;;-3.90;71.50;;;;;;973802;144;27355;-83
2024/01/09 04:18:25;;;;;;;7.03;6.03;;;-3.90;71.50;;;;;;971855;144;27332;-83
2024/01/09 04:20:51;;;;;;;10.40;6.40;;;-3.90;71.60;;;;;;972628;144;27304;-84
2024/01/09 04:23:18;;;;;;;10.23;5.80;;;-3.90;71.60;;;;;;936664;150;27464;-87
2024/01/09 04:25:44;;;;;;;7.30;5.70;;;-3.90;71.60;;;;;;949125;149;27449;-87
2024/01/09 04:28:11;;;;;;;4.73;4.20;;;-3.90;71.60;;;;;;973459;144;27332;-87
2024/01/09 04:30:38;;;;;;;10.53;7.17;;;-3.90;72.40;;;;;;971912;144;27274;-87
2024/01/09 04:33:04;;;;;;;9.10;6.10;;;-3.90;71.10;;;;;;973918;144;27317;-85
2024/01/09 04:35:31;;;;;;;10.80;6.17;;;-3.90;71.50;;;;;;975911;144;27346;-88
2024/01/09 04:37:57;;;;;;;8.77;6.30;;;-3.90;71.60;;;;;;969838;144;27230;-88
2024/01/09 04:40:25;;;;;;;11.27;6.83;;;-3.90;71.60;;;;;;974366;144;27394;-86
2024/01/09 04:42:50;;;;;;;8.97;6.37;;;-3.90;71.60;;;;;;971035;144;27387;-84
2024/01/09 04:45:17;;;;;;;10.40;6.50;;;-3.90;71.60;;;;;;971475;144;27403;-89
2024/01/09 04:47:44;;;;;;;8.40;5.43;;;-3.90;71.60;;;;;;970958;144;27293;-86
2024/01/09 04:50:10;;;;;;;6.90;5.57;;;-3.90;71.60;;;;;;971560;144;27263;-88
2024/01/09 04:52:37;;;;;;;8.73;6.03;;;-3.90;71.70;;;;;;974798;144;27345;-87
2024/01/09 04:55:03;;;;;;;8.17;6.77;;;-3.90;71.60;;;;;;972320;144;27342;-88
2024/01/09 04:57:30;;;;;;;8.37;5.73;;;-3.90;71.60;;;;;;975591;144;27325;-88
2024/01/09 04:59:57;;;;;;;7.27;5.20;;;-3.90;71.60;;;;;;972598;144;27371;-87
2024/01/09 05:02:23;;;;;;;9.47;6.97;;;-4.00;72.20;;;;;;976762;144;27266;-86
2024/01/09 05:04:50;;;;;;;11.20;6.87;;;-4.00;71.40;;;;;;973952;144;27379;-83
2024/01/09 05:07:16;;;;;;;10.00;6.20;;;-4.00;71.50;;;;;;976540;144;27414;-87
2024/01/09 05:09:43;;;;;;;9.57;6.50;;;-4.00;71.50;;;;;;973233;144;27357;-87
2024/01/09 05:12:10;;;;;;;9.67;6.80;;;-4.00;71.50;;;;;;974506;144;27442;-83
2024/01/09 05:14:36;;;;;;;10.10;6.63;;;-4.00;71.60;;;;;;975023;144;27302;-85
2024/01/09 05:17:03;;;;;;;7.67;5.63;;;-4.00;71.50;;;;;;973032;144;27407;-83
2024/01/09 05:19:29;;;;;;;8.27;5.40;;;-4.00;71.60;;;;;;973672;144;27295;-83
2024/01/09 05:21:56;;;;;;;8.67;5.73;;;-4.00;71.50;;;;;;973101;144;27360;-83
2024/01/09 05:24:22;;;;;;;10.47;6.83;;;-4.00;71.50;;;;;;973495;144;27332;-84
2024/01/09 05:26:49;;;;;;;9.77;5.27;;;-4.00;71.60;;;;;;973361;144;27302;-83
2024/01/09 05:29:16;;;;;;;8.50;6.27;;;-4.00;71.60;;;;;;927881;153;27450;-84
2024/01/09 05:31:42;;;;;;;9.57;6.10;;;-4.00;71.60;;;;;;957399;147;27297;-83
2024/01/09 05:34:09;;;;;;;7.53;6.30;;;-4.00;71.60;;;;;;954909;147;27295;-83
2024/01/09 05:36:35;;;;;;;10.07;6.53;;;-4.10;71.60;;;;;;956640;147;27425;-85
2024/01/09 05:39:02;;;;;;;7.77;6.03;;;-4.10;71.50;;;;;;958868;147;27380;-83
2024/01/09 05:41:29;;;;;;;9.33;6.97;;;-4.10;71.50;;;;;;955590;147;27406;-84
2024/01/09 05:43:57;;;;;;;8.73;5.63;;;-4.10;71.50;;;;;;954863;147;27340;-84
2024/01/09 05:46:22;;;;;;;8.20;6.17;;;-4.10;71.50;;;;;;957472;147;27676;-84
2024/01/09 05:48:48;;;;;;;10.60;6.33;;;-4.10;71.50;;;;;;946334;147;27507;-86
2024/01/09 05:51:15;;;;;;;11.13;6.77;;;-4.10;71.60;;;;;;940441;149;27374;-84
2024/01/09 05:53:42;;;;;;;10.77;6.33;;;-4.10;71.60;;;;;;939095;149;27299;-83
2024/01/09 05:56:08;;;;;;;8.10;5.87;;;-4.10;71.70;;;;;;938749;149;27258;-84
2024/01/09 05:58:35;;;;;;;9.67;6.10;;;-4.20;71.70;;;;;;935496;150;27315;-85
2024/01/09 06:01:01;;;;;;;8.00;5.63;;;-4.20;71.70;;;;;;935901;150;27487;-83
2024/01/09 06:03:28;;;;;;;8.27;5.77;;;-4.20;71.70;;;;;;969277;144;27266;-83
2024/01/09 06:05:56;;;;;;;8.27;5.77;;;-4.20;71.70;;;;;;970018;144;27271;-85
2024/01/09 06:08:21;;;;;;;9.43;6.03;;;-4.20;71.70;;;;;;969097;144;27392;-85
2024/01/09 06:10:48;;;;;;;7.80;5.77;;;-4.20;71.60;;;;;;969976;144;27674;-83
2024/01/09 06:13:14;;;;;;;11.00;6.70;;;-4.30;71.60;;;;;;965952;144;27314;-83
2024/01/09 06:15:41;;;;;;;9.37;5.77;;;-4.30;71.60;;;;;;972046;144;27283;-84
2024/01/09 06:18:07;;;;;;;7.43;5.37;;;-4.30;71.70;;;;;;971535;144;27314;-84
2024/01/09 06:20:34;;;;;;;9.83;6.90;;;-4.30;71.70;;;;;;967985;144;27332;-83
2024/01/09 06:23:01;;;;;;;8.53;5.50;;;-4.30;71.70;;;;;;966665;144;28328;-86
2024/01/09 06:25:27;;;;;;;8.80;5.93;;;-4.30;71.70;;;;;;968532;144;27243;-87
2024/01/09 06:27:54;;;;;;;11.13;6.40;;;-4.30;71.80;;;;;;968838;144;27298;-87
2024/01/09 06:30:20;;;;;;;10.17;5.80;;;-4.30;71.90;;;;;;968878;144;27255;-84
2024/01/09 06:32:47;;;;;;;7.80;5.60;;;-4.40;71.70;;;;;;967742;144;27464;-87
2024/01/09 06:35:13;;;;;;;7.83;5.00;;;-4.40;71.70;;;;;;968993;144;27379;-90
2024/01/09 06:37:40;;;;;;;8.53;5.30;;;-4.40;71.80;;;;;;968763;144;27280;-89
2024/01/09 06:40:07;;;;;;;8.77;5.73;;;-4.40;71.80;;;;;;969745;144;27289;-84
2024/01/09 06:42:33;;;;;;;7.80;5.30;;;-4.40;71.80;;;;;;967212;144;27319;-88
2024/01/09 06:45:00;;;;;;;6.37;5.43;;;-4.40;71.90;;;;;;966088;144;28334;-88
2024/01/09 06:47:27;;;;;;;7.97;5.93;;;-4.50;71.90;;;;;;973220;144;27223;-87
2024/01/09 06:49:53;;;;;;;7.87;5.20;;;-4.50;71.90;;;;;;970771;144;27387;-88
2024/01/09 06:52:20;;;;;;;7.43;5.07;;;-4.50;72.00;;;;;;969316;144;27391;-84
2024/01/09 06:54:46;;;;;;;6.90;5.30;;;-4.50;71.90;;;;;;970962;143;27288;-87
2024/01/09 06:57:13;;;;;;;7.27;5.30;;;-4.50;72.00;;;;;;970050;144;27240;-86
2024/01/09 06:59:40;;;;;;;10.77;6.17;;;-4.50;72.00;;;;;;969913;144;27689;-87
2024/01/09 07:02:06;;;;;;;6.70;5.47;;;-4.60;71.90;;;;;;969173;144;27271;-85
2024/01/09 07:04:33;;;;;;;5.63;4.40;;;-4.60;72.00;;;;;;933175;149;27444;-88
2024/01/09 07:07:00;;;;;;;9.70;5.90;;;-4.60;72.00;;;;;;930743;151;27881;-87
2024/01/09 07:09:26;;;;;;;7.40;5.67;;;-4.60;72.00;;;;;;935455;148;27368;-86
2024/01/09 07:11:52;;;;;;;8.13;6.23;;;-4.60;72.00;;;;;;944060;148;27387;-87
2024/01/09 07:14:19;;;;;;;7.67;5.97;;;-4.60;72.20;;;;;;968223;144;27343;-84
2024/01/09 07:16:46;;;;;;;7.87;5.73;;;-4.60;72.10;;;;;;968785;144;27427;-87
2024/01/09 07:19:13;;;;;;;8.43;5.90;;;-4.60;72.10;;;;;;970658;144;27389;-86
2024/01/09 07:21:39;;;;;;;7.30;5.30;;;-4.60;72.20;;;;;;971042;144;27264;-85
2024/01/09 07:24:05;;;;;;;9.00;5.83;;;-4.60;72.30;;;;;;968392;144;27817;-84
2024/01/09 07:26:32;;;;;;;8.27;5.30;;;-4.60;72.30;;;;;;967653;144;27322;-88
2024/01/09 07:28:59;;;;;;;8.50;5.67;;;-4.60;72.30;;;;;;970908;144;27263;-87
2024/01/09 07:31:25;;;;;;;9.30;6.17;;;-4.60;72.30;;;;;;970028;144;27240;-86
2024/01/09 07:33:52;;;;;;;9.73;6.03;;;-4.60;72.50;;;;;;930830;149;27401;-83
2024/01/09 07:36:18;;;;;;;13.50;7.23;;;-4.60;72.60;;;;;;929983;151;27444;-83
2024/01/09 07:38:46;;;;;;;11.17;7.03;;;-4.60;72.50;;;;;;924568;151;27717;-82
2024/01/09 07:41:12;;;;;;;11.40;7.20;;;-4.60;72.50;;;;;;947943;146;27241;-83
2024/01/09 07:43:38;;;;;;;10.63;6.97;;;-4.60;72.60;;;;;;939943;148;27829;-83
2024/01/09 07:46:05;;;;;;;11.37;7.33;;;-4.50;72.20;;;;;;941248;149;27459;-83
2024/01/09 07:48:31;;;;;;;9.97;6.33;;;-4.40;73.70;;;;;;969045;144;27428;-82
2024/01/09 07:51:01;;;;;;;9.53;6.40;;;-4.20;74.50;;;;;;967854;144;27347;-83
2024/01/09 07:53:24;;;;;;;9.00;6.20;;;-3.90;75.20;;;;;;969594;144;27268;-84
2024/01/09 07:55:51;;;;;;;7.17;5.53;;;-3.60;76.30;;;;;;966596;144;27333;-83
2024/01/09 07:58:18;;;;;;;6.20;5.33;;;-3.40;75.30;;;;;;968648;144;27317;-84
2024/01/09 08:00:44;;;;;;;8.43;6.20;;;-3.20;74.70;;;;;;969659;144;27411;-84
2024/01/09 08:03:11;;;;;;;7.77;5.83;;;-3.00;74.20;;;;;;967784;144;27228;-85
2024/01/09 08:05:37;;;;;;;8.07;5.53;;;-2.90;73.60;;;;;;969573;144;27323;-86
2024/01/09 08:08:04;;;;;;;8.53;6.03;;;-2.80;73.20;;;;;;967997;144;27386;-84
2024/01/09 08:10:31;;;;;;;11.47;6.20;;;-2.80;72.90;;;;;;969467;144;27347;-84
2024/01/09 08:12:58;;;;;;;11.57;6.40;;;-2.70;72.80;;;;;;970834;144;27314;-84
2024/01/09 08:15:24;;;;;;;9.57;6.40;;;-2.60;73.10;;;;;;969268;143;27398;-86
2024/01/09 08:17:50;;;;;;;9.77;6.37;;;-2.40;73.80;;;;;;969267;144;27391;-84
2024/01/09 08:20:17;;;;;;;8.37;5.90;;;-2.10;74.50;;;;;;968190;144;27275;-84
2024/01/09 08:22:43;;;;;;;8.90;5.30;;;-1.70;75.10;;;;;;970410;143;27309;-84
2024/01/09 08:25:10;;;;;;;9.97;6.17;;;-1.40;75.10;;;;;;971910;144;27384;-85
2024/01/09 08:27:37;;;;;;;8.03;5.67;;;-1.10;74.60;;;;;;970610;143;27335;-85
2024/01/09 08:30:03;;;;;;;8.33;5.80;;;-0.90;73.80;;;;;;970703;144;27426;-84
2024/01/09 08:32:30;;;;;;;6.37;5.70;;;-0.80;72.80;;;;;;969555;144;27324;-85
2024/01/09 08:34:56;;;;;;;7.23;5.37;;;-0.80;71.90;;;;;;968306;144;27225;-84
2024/01/09 08:37:23;;;;;;;6.67;5.40;;;-0.80;71.20;;;;;;967447;144;27420;-84
2024/01/09 08:39:50;;;;;;;8.33;6.03;;;-0.90;70.70;;;;;;969165;144;27863;-84
2024/01/09 08:42:16;;;;;;;9.33;6.27;;;-1.00;70.30;;;;;;968932;144;27364;-84
2024/01/09 08:44:43;;;;;;;7.00;5.07;;;-1.10;70.20;;;;;;968376;144;27256;-88
2024/01/09 08:47:10;;;;;;;7.60;5.10;;;-1.10;70.30;;;;;;969023;144;27238;-85
2024/01/09 08:49:36;;;;;;;6.90;5.17;;;-1.20;70.40;;;;;;971064;143;27364;-88
2024/01/09 08:52:03;;;;;;;7.13;5.07;;;-1.20;70.70;;;;;;970155;144;27783;-88
2024/01/09 08:54:29;;;;;;;7.53;5.37;;;-1.20;70.90;;;;;;967374;144;27241;-88
2024/01/09 08:56:56;;;;;;;7.43;5.13;;;-1.20;70.90;;;;;;968803;144;27246;-88
2024/01/09 08:59:23;;;;;;;7.37;5.60;;;-1.20;70.60;;;;;;967392;144;27612;-88
2024/01/09 09:01:49;;;;;;;5.90;4.90;;;-1.30;70.40;;;;;;968605;144;27309;-89
2024/01/09 09:04:15;;;;;;;7.37;5.13;;;-1.30;71.20;;;;;;968618;143;27443;-87
2024/01/09 09:06:42;;;;;;;9.83;5.50;;;-1.30;70.60;;;;;;971023;144;27263;-89
2024/01/09 09:09:09;;;;;;;7.03;4.87;;;-1.30;70.70;;;;;;969846;143;27350;-85
2024/01/09 09:11:35;;;;;;;9.17;6.23;;;-1.40;70.40;;;;;;970136;144;27330;-88
2024/01/09 09:14:02;;;;;;;6.90;4.87;;;-1.40;70.40;;;;;;967901;144;27267;-89
2024/01/09 09:16:29;;;;;;;8.00;5.60;;;-1.40;70.30;;;;;;973471;143;28090;-87
2024/01/09 09:18:55;;;;;;;6.67;4.90;;;-1.50;70.30;;;;;;970742;144;27302;-86
2024/01/09 09:21:22;;;;;;;6.30;5.17;;;-1.50;70.30;;;;;;971162;144;27282;-89
2024/01/09 09:23:48;;;;;;;5.67;4.87;;;-1.50;70.40;;;;;;970141;144;27358;-89
2024/01/09 09:26:15;;;;;;;10.30;6.27;;;-1.50;70.40;;;;;;967832;144;27250;-88
2024/01/09 09:28:43;;;;;;;6.53;4.87;;;-1.60;70.30;;;;;;971302;144;27271;-87
2024/01/09 09:31:08;;;;;;;8.27;5.13;;;-1.50;70.60;;;;;;970146;143;27318;-89
2024/01/09 09:33:34;;;;;;;6.37;4.93;;;-1.60;70.50;;;;;;971512;144;27754;-89
2024/01/09 09:36:07;;;;;;;6.20;5.03;;;-1.60;70.40;;;;;;970750;143;27352;-88
2024/01/09 09:38:34;;;;;;;8.93;5.47;;;-1.50;70.60;;;;;;969171;144;27231;-88
2024/01/09 09:41:07;;;;;;;5.43;4.30;;;-1.50;70.60;;;;;;970400;144;27397;-86
2024/01/09 09:43:34;;;;;;;7.23;4.90;;;-1.50;70.60;;;;;;968613;144;27326;-88
2024/01/09 09:46:00;;;;;;;7.70;5.10;;;-1.50;70.60;;;;;;967765;144;27316;-89
2024/01/09 09:48:27;;;;;;;6.87;5.17;;;-1.50;70.40;;;;;;967581;144;27351;-89
2024/01/09 09:50:53;;;;;;;6.03;5.03;;;-1.40;70.60;;;;;;968959;144;27297;-87
2024/01/09 09:53:20;;;;;;;5.43;4.10;;;-1.40;70.60;;;;;;970440;143;27410;-88
2024/01/09 09:55:46;;;;;;;6.20;5.20;;;-1.40;70.60;;;;;;970630;143;27266;-88
2024/01/09 09:58:13;;;;;;;6.37;4.73;;;-1.30;70.60;;;;;;972485;143;27244;-86
2024/01/09 10:00:39;;;;;;;6.90;5.10;;;-1.30;70.40;;;;;;970700;143;27273;-85
2024/01/09 10:03:09;;;;;;;9.00;4.63;;;-1.20;70.50;;;;;;970442;143;27341;-87
2024/01/09 10:05:35;;;;;;;6.37;4.50;;;-1.20;70.40;;;;;;968767;143;27256;-86
2024/01/09 10:08:02;;;;;;;7.13;4.97;;;-1.10;70.40;;;;;;968621;143;27317;-85
2024/01/09 10:10:28;;;;;;;5.47;4.90;;;-1.10;70.40;;;;;;971003;143;27243;-85
2024/01/09 10:12:58;;;;;;;7.20;5.00;;;-1.00;70.30;;;;;;972000;143;27418;-86
2024/01/09 10:15:24;;;;;;;4.77;4.27;;;-0.90;70.30;;;;;;973494;143;27292;-85
2024/01/09 10:17:51;;;;;;;6.43;4.63;;;-0.80;70.30;;;;;;971624;143;27266;-84
2024/01/09 10:20:17;;;;;;;4.77;4.33;;;-0.70;70.40;;;;;;969609;143;27370;-84
2024/01/09 10:22:44;;;;;;;7.03;5.57;;;-0.60;70.60;;;;;;970007;143;27326;-84
2024/01/09 10:25:11;;;;;;;5.87;4.87;;;-0.50;70.30;;;;;;973710;144;27232;-84
2024/01/09 10:27:37;;;;;;;5.93;4.73;;;-0.40;70.20;;;;;;972459;144;27237;-84
2024/01/09 10:30:07;;;;;;;6.00;4.73;;;-0.40;70.20;;;;;;970679;144;27359;-84
2024/01/09 10:32:33;;;;;;;6.67;4.93;;;-0.30;70.30;;;;;;973308;144;27334;-83
2024/01/09 10:35:00;;;;;;;7.37;4.83;;;-0.20;70.10;;;;;;973960;144;27285;-84
2024/01/09 10:37:26;;;;;;;5.47;4.90;;;0.00;69.90;;;;;;972579;144;27259;-84
2024/01/09 10:39:53;;;;;;;5.40;4.03;;;0.10;69.90;;;;;;971453;144;27271;-84
2024/01/09 10:42:20;;;;;;;6.63;4.40;;;0.20;69.70;;;;;;975447;144;27240;-84
2024/01/09 10:44:47;;;;;;;5.67;4.57;;;0.30;69.60;;;;;;970441;144;27314;-84
2024/01/09 10:47:17;;;;;;;5.33;4.50;;;0.30;69.30;;;;;;971967;144;27230;-88
2024/01/09 10:49:42;;;;;;;4.97;4.17;;;0.40;69.30;;;;;;973248;144;27359;-84
2024/01/09 10:52:15;;;;;;;4.73;4.23;;;0.50;69.00;;;;;;973479;144;27454;-85
2024/01/09 10:54:41;;;;;;;7.33;5.27;;;0.60;68.90;;;;;;973996;144;27310;-84
2024/01/09 10:57:11;;;;;;;6.00;4.27;;;0.70;68.70;;;;;;972643;144;27249;-84
2024/01/09 10:59:37;;;;;;;4.90;3.93;;;0.70;68.90;;;;;;970565;144;27391;-84
2024/01/09 11:02:04;;;;;;;5.80;4.63;;;0.80;68.80;;;;;;972605;144;27338;-84
2024/01/09 11:04:30;;;;;;;5.03;4.30;;;0.80;68.60;;;;;;973752;144;27460;-91
2024/01/09 11:06:57;;;;;;;7.90;5.87;;;0.90;68.50;;;;;;972413;144;27784;-83
2024/01/09 11:09:23;;;;;;;5.60;4.20;;;1.00;68.40;;;;;;976465;144;27411;-89
2024/01/09 11:11:50;;;;;;;5.43;4.50;;;1.00;68.30;;;;;;975503;144;27825;-86
2024/01/09 11:14:17;;;;;;;6.90;4.47;;;1.10;68.30;;;;;;972612;144;27318;-90
2024/01/09 11:16:43;;;;;;;5.87;4.30;;;1.20;68.20;;;;;;971770;144;27323;-89
2024/01/09 11:19:10;;;;;;;5.07;4.20;;;1.20;68.10;;;;;;970440;144;27279;-88
2024/01/09 11:21:36;;;;;;;6.10;4.40;;;1.30;68.00;;;;;;974796;143;27654;-88
2024/01/09 11:24:03;;;;;;;6.30;4.63;;;1.40;67.80;;;;;;973596;143;27392;-79
2024/01/09 11:26:30;;;;;;;5.57;4.30;;;1.40;67.90;;;;;;973901;144;27331;-79
2024/01/09 11:28:57;;;;;;;5.47;4.53;;;1.50;67.80;;;;;;974350;144;27345;-79
2024/01/09 11:31:23;;;;;;;4.87;4.20;;;1.60;67.70;;;;;;975383;144;27233;-79
2024/01/09 11:33:53;;;;;;;4.93;4.10;;;1.60;67.60;;;;;;972803;144;27330;-79
2024/01/09 11:36:28;;;;;;;5.30;4.13;;;1.70;67.40;;;;;;972984;144;27330;-79
2024/01/09 11:38:55;;;;;;;5.80;3.70;;;1.80;67.50;;;;;;971888;144;27274;-80
2024/01/09 11:41:22;;;;;;;7.87;5.30;;;1.80;67.30;;;;;;970818;144;27247;-80
2024/01/09 11:44:03;;;;;;;6.30;4.33;;;1.90;67.20;;;;;;971606;144;27262;-80
2024/01/09 11:46:32;;;;;;;7.63;4.43;;;1.90;66.90;;;;;;971823;144;27395;-79
2024/01/09 11:48:59;;;;;;;5.33;4.17;;;2.00;66.90;;;;;;973361;144;27348;-79
2024/01/09 11:51:25;;;;;;;5.20;4.43;;;2.00;66.80;;;;;;975377;143;27333;-78
2024/01/09 11:53:52;;;;;;;6.13;4.50;;;2.10;66.60;;;;;;977358;143;27403;-81
2024/01/09 11:56:18;;;;;;;6.47;4.47;;;2.10;66.50;;;;;;980781;143;27320;-78
2024/01/09 11:58:45;;;;;;;5.17;4.23;;;2.20;67.40;;;;;;976641;143;27247;-78
2024/01/09 12:01:11;;;;;;;7.90;4.57;;;2.20;66.20;;;;;;978482;143;27298;-79
2024/01/09 12:03:38;;;;;;;5.73;5.07;;;2.30;66.10;;;;;;977300;142;27312;-80
2024/01/09 12:06:05;;;;;;;5.07;4.10;;;2.30;66.00;;;;;;978210;143;27313;-78
2024/01/09 12:08:31;;;;;;;6.13;4.60;;;2.40;66.10;;;;;;977930;143;27376;-79
2024/01/09 12:10:58;;;;;;;6.47;4.10;;;2.40;66.70;;;;;;976662;143;27317;-78
2024/01/09 12:13:24;;;;;;;5.70;4.50;;;2.40;65.80;;;;;;978331;143;27358;-81
2024/01/09 12:15:51;;;;;;;6.43;4.73;;;2.50;65.80;;;;;;980523;143;27313;-81
2024/01/09 12:18:17;;;;;;;7.83;5.10;;;2.50;66.00;;;;;;978329;143;27345;-80
2024/01/09 12:20:44;;;;;;;7.37;5.10;;;2.60;65.70;;;;;;976833;143;27358;-80
2024/01/09 12:23:11;;;;;;;7.23;5.07;;;2.60;65.40;;;;;;976942;143;27266;-80
2024/01/09 12:25:37;;;;;;;5.77;4.73;;;2.70;65.60;;;;;;976870;143;27323;-80
2024/01/09 12:28:04;;;;;;;6.50;4.53;;;2.70;65.60;;;;;;980206;143;27329;-80
2024/01/09 12:30:33;;;;;;;8.50;5.10;;;2.80;65.10;;;;;;978394;143;27851;-80
2024/01/09 12:33:00;;;;;;;6.97;4.60;;;2.80;65.00;;;;;;976668;143;27433;-80
2024/01/09 12:35:26;;;;;;;5.83;3.73;;;2.90;64.80;;;;;;979969;143;27774;-80
2024/01/09 12:37:53;;;;;;;4.40;3.47;;;2.90;64.70;;;;;;976624;143;27413;-78
2024/01/09 12:40:20;;;;;;;3.27;2.93;;;3.00;64.40;;;;;;969617;143;27699;-78
2024/01/09 12:42:46;;;;;;;3.10;2.90;;;3.10;64.20;;;;;;971072;144;27264;-78
2024/01/09 12:45:13;;;;;;;3.27;2.97;;;3.10;63.90;;;;;;969320;143;27383;-80